Terminal Aerodrome Forecast
Issued by NWS Charleston, WV

Home | Current Version | Previous Version | Text Only | Print | Product List | Glossary On
Versions: 1 2 3 4 5 6 7 8 9 10 11 12 13 14 15 16 17 18 19 20 21 22
000
FTUS41 KRLX 311202 CCA
TAFEKN
TAF COR
KEKN 311202Z 3112/0112 00000KT 5SM BR BKN004
     FM311300 00000KT 6SM BR SCT004
     FM311400 35002KT P6SM SCT250
     FM311800 36005KT P6SM SCT050
     FM010100 00000KT P6SM SCT250
     FM010600 00000KT 5SM BR SCT250
     FM010800 00000KT 2SM BR BKN002
     FM011000 00000KT 1/2SM FG VV001=

USA.gov is the U.S. government's official web portal to all federal, state and local government web resources and services.